tititudorancea.com
Station Historical Data
Daily Summary for July 5, 2018 Units:  Metric    English   Both
« Previous Day
Next Day »
Daily Weekly Monthly Yearly Custom
  High: Low: Average:
Temperature: -17.8 °C 9.3 °C 12.2 °C
Dew Point: -17.8 °C 3.1 °C 5.4 °C
Humidity: Humidity % 50 % 64 %
Wind Speed: 0 km/h 5.6 km/h 17.4 km/h
Wind Gust: 0 km/h - -
Wind:- - West
Pressure: 0 hPa 1004.3 hPa -
Precipitation: 1.27 mm    
Historical Graphs
 
 
Ararat weather Find more about Weather in Ararat, AU


 



 


Tabular Data for July 5, 2018
Time Temperature Dew Point Pressure Wind Wind Speed Wind Gust Humidity Rainfall Rate (Hourly)
-17.8 °C -17.8 °C 0 hPa Calm     Humidity % 0 mm
00:04 11.9 °C 3.7 °C 1015.8 hPa NNW 9.3 km/h 6.1 km/h 57 % 0 mm
00:09 12 °C 3.5 °C 1015.8 hPa NNW 13 km/h 6.9 km/h 56 % 0 mm
00:14 12.2 °C 3.4 °C 1015.8 hPa North 14.8 km/h 7.9 km/h 55 % 0 mm
00:19 12.3 °C 3.6 °C 1015.8 hPa NNW 8 km/h 6.9 km/h 55 % 0 mm
00:24 12.3 °C 3.5 °C 1015.8 hPa NNW 5.6 km/h 4.5 km/h 55 % 0 mm
00:29 12.2 °C 3.4 °C 1015.5 hPa NNW 6.4 km/h 3.9 km/h 55 % 0 mm
00:34 12.2 °C 3.4 °C 1015.5 hPa North 5.6 km/h 4.3 km/h 55 % 0 mm
00:39 12.2 °C 3.4 °C 1015.5 hPa NNW 5.6 km/h 7.1 km/h 55 % 0 mm
00:44 12.1 °C 3.3 °C 1015.5 hPa NNW 11.3 km/h 6.6 km/h 55 % 0 mm
00:49 12.2 °C 3.1 °C 1015.1 hPa NNW 13 km/h 6.6 km/h 54 % 0 mm
00:54 12.3 °C 3.2 °C 1015.1 hPa North 5.6 km/h 5.3 km/h 54 % 0 mm
00:59 12.3 °C 3.3 °C 1015.1 hPa NNW 9.7 km/h 8.7 km/h 54 % 0 mm
01:04 12.4 °C 3.4 °C 1015.1 hPa NNW 11.3 km/h 8.9 km/h 54 % 0 mm
01:09 12.4 °C 3.4 °C 1015.1 hPa North 11.1 km/h 6.8 km/h 54 % 0 mm
01:14 12.4 °C 3.4 °C 1015.1 hPa NNW 11.1 km/h 5.5 km/h 54 % 0 mm
01:19 12.4 °C 3.4 °C 1015.1 hPa NNW 7.4 km/h 4.2 km/h 54 % 0 mm
01:24 12.5 °C 3.2 °C 1014.8 hPa NNW 11.3 km/h 5.8 km/h 53 % 0 mm
01:29 12.7 °C 3.3 °C 1014.8 hPa NNW 18.5 km/h 7.2 km/h 53 % 0 mm
01:34 12.9 °C 3.3 °C 1014.8 hPa North 16.7 km/h 9 km/h 52 % 0 mm
01:39 13.1 °C 3.4 °C 1015.1 hPa NNW 18.5 km/h 8.5 km/h 52 % 0 mm
01:44 13.1 °C 3.4 °C 1014.8 hPa NNW 9.3 km/h 6.4 km/h 52 % 0 mm
01:49 13.1 °C 3.4 °C 1014.8 hPa NNW 14.8 km/h 6.9 km/h 52 % 0 mm
01:54 13.1 °C 3.4 °C 1014.4 hPa North 13 km/h 6.3 km/h 52 % 0 mm
01:59 12.9 °C 3.3 °C 1014.4 hPa North 11.1 km/h 6.3 km/h 52 % 0 mm
02:04 12.8 °C 3.5 °C 1014.4 hPa North 11.3 km/h 9 km/h 53 % 0 mm
02:09 12.7 °C 3.4 °C 1014.4 hPa North 16.7 km/h 11.4 km/h 53 % 0 mm
02:14 12.7 °C 3.4 °C 1014.4 hPa North 24.1 km/h 12.7 km/h 53 % 0 mm
02:19 12.7 °C 3.6 °C 1014.1 hPa North 18.5 km/h 9.5 km/h 54 % 0 mm
02:24 12.6 °C 3.8 °C 1014.1 hPa North 22.2 km/h 9.3 km/h 55 % 0 mm
02:29 12.4 °C 3.7 °C 1014.1 hPa North 13 km/h 8.5 km/h 55 % 0 mm
02:34 12.3 °C 3.8 °C 1014.1 hPa North 9.7 km/h 8.9 km/h 56 % 0 mm
02:39 12.3 °C 3.7 °C 1014.1 hPa NNW 14.8 km/h 8.4 km/h 56 % 0 mm
02:44 12.3 °C 3.7 °C 1014.1 hPa NNW 16.7 km/h 9.2 km/h 56 % 0 mm
02:49 12.2 °C 3.7 °C 1014.1 hPa NNW 14.8 km/h 5.8 km/h 56 % 0 mm
02:54 12.2 °C 3.7 °C 1014.1 hPa NNW 11.1 km/h 7.7 km/h 56 % 0 mm
02:59 12.2 °C 3.7 °C 1014.1 hPa NNW 11.1 km/h 7.4 km/h 56 % 0 mm
03:04 12 °C 3.5 °C 1014.1 hPa NNW 8 km/h 6.6 km/h 56 % 0 mm
03:09 11.9 °C 3.7 °C 1014.4 hPa NNW 11.1 km/h 8.4 km/h 57 % 0 mm
03:14 11.9 °C 3.6 °C 1014.4 hPa NNW 7.4 km/h 4.3 km/h 57 % 0 mm
03:19 11.8 °C 3.6 °C 1014.1 hPa NNW 9.3 km/h 7.1 km/h 57 % 0 mm
03:24 11.7 °C 3.7 °C 1014.1 hPa NNW 5.6 km/h 4.2 km/h 58 % 0 mm
03:29 11.5 °C 3.8 °C 1014.1 hPa NNW 5.6 km/h 3.9 km/h 59 % 0 mm
03:34 11.3 °C 3.8 °C 1014.1 hPa NNW 7.4 km/h 3.9 km/h 60 % 0 mm
03:39 11.2 °C 3.7 °C 1014.1 hPa NNW 5.6 km/h 3.2 km/h 60 % 0 mm
03:44 11.1 °C 3.6 °C 1014.1 hPa NNW 14.8 km/h 9.8 km/h 60 % 0 mm
03:49 11.1 °C 3.6 °C 1014.1 hPa North 16.1 km/h 10.1 km/h 60 % 0 mm
03:54 11.2 °C 3.7 °C 1013.8 hPa NNW 18.5 km/h 8.4 km/h 60 % 0 mm
03:59 11.2 °C 3.7 °C 1013.8 hPa North 18.5 km/h 9.5 km/h 60 % 0 mm
04:04 11.2 °C 3.7 °C 1013.8 hPa North 13 km/h 8 km/h 60 % 0 mm
04:09 11.1 °C 3.6 °C 1013.4 hPa North 13 km/h 6.8 km/h 60 % 0 mm
04:14 10.9 °C 3.7 °C 1013.4 hPa North 6.4 km/h 5.6 km/h 61 % 0 mm
04:19 10.8 °C 3.6 °C 1013.4 hPa North 5.6 km/h 5 km/h 61 % 0 mm
04:24 10.6 °C 3.6 °C 1013.4 hPa North 5.6 km/h 2.6 km/h 62 % 0 mm
04:29 10.4 °C 3.4 °C 1013.8 hPa North 5.6 km/h 3.9 km/h 62 % 0 mm
04:34 10.3 °C 3.6 °C 1013.8 hPa North 7.4 km/h 5.8 km/h 63 % 0 mm
04:39 10.3 °C 3.6 °C 1013.4 hPa North 9.3 km/h 4.8 km/h 63 % 0 mm
04:44 10.2 °C 3.5 °C 1013.1 hPa North 11.1 km/h 8.2 km/h 63 % 0 mm
04:49 10.3 °C 3.6 °C 1013.1 hPa North 13 km/h 7.7 km/h 63 % 0 mm
04:54 10.3 °C 3.6 °C 1012.8 hPa North 9.3 km/h 6.3 km/h 63 % 0 mm
04:59 10.3 °C 3.6 °C 1012.8 hPa North 11.3 km/h 6.9 km/h 63 % 0 mm
05:04 10.3 °C 3.6 °C 1012.8 hPa North 9.3 km/h 6.9 km/h 63 % 0 mm
05:09 10.3 °C 3.6 °C 1012.8 hPa North 9.7 km/h 4.3 km/h 63 % 0 mm
05:14 10.4 °C 3.4 °C 1013.1 hPa North 13 km/h 9.3 km/h 62 % 0 mm
05:19 10.5 °C 3.5 °C 1013.4 hPa North 14.8 km/h 9 km/h 62 % 0 mm
05:23 10.6 °C 3.4 °C 1013.4 hPa North 14.8 km/h 8.7 km/h 61 % 0 mm
05:29 10.8 °C 3.6 °C 1013.4 hPa North 16.7 km/h 9.7 km/h 61 % 0 mm
05:34 10.9 °C 3.4 °C 1013.8 hPa NNW 16.7 km/h 8.7 km/h 60 % 0 mm
05:39 10.9 °C 3.7 °C 1013.8 hPa NNW 13 km/h 5.8 km/h 61 % 0 mm
05:44 10.8 °C 3.6 °C 1013.8 hPa NNW 14.8 km/h 11.1 km/h 61 % 0 mm
05:49 10.8 °C 3.6 °C 1013.8 hPa NW 9.3 km/h 7.7 km/h 61 % 0 mm
05:54 10.7 °C 3.7 °C 1013.8 hPa NW 14.8 km/h 6.6 km/h 62 % 0 mm
05:59 10.6 °C 3.6 °C 1013.8 hPa NNW 14.8 km/h 7.1 km/h 62 % 0 mm
06:04 10.6 °C 3.8 °C 1013.8 hPa NNW 11.1 km/h 7.4 km/h 63 % 0 mm
06:09 10.5 °C 3.7 °C 1013.8 hPa North 9.3 km/h 6.4 km/h 63 % 0 mm
06:14 10.4 °C 3.7 °C 1013.8 hPa NNW 7.4 km/h 5.1 km/h 63 % 0 mm
06:19 10.4 °C 3.9 °C 1013.8 hPa North 7.4 km/h 6.8 km/h 64 % 0 mm
06:24 10.4 °C 3.9 °C 1013.8 hPa NNW 11.1 km/h 6.8 km/h 64 % 0 mm
06:29 10.4 °C 3.7 °C 1013.8 hPa NNW 9.3 km/h 5.1 km/h 63 % 0 mm
06:34 10.4 °C 3.7 °C 1013.8 hPa North 9.3 km/h 8 km/h 63 % 0 mm
06:39 10.4 °C 3.7 °C 1013.8 hPa NNW 13 km/h 9.2 km/h 63 % 0 mm
06:44 10.6 °C 3.6 °C 1013.8 hPa North 13 km/h 9.8 km/h 62 % 0 mm
06:49 10.6 °C 3.6 °C 1013.8 hPa North 16.7 km/h 8 km/h 62 % 0 mm
06:54 10.6 °C 3.6 °C 1013.8 hPa North 18.5 km/h 7.6 km/h 62 % 0 mm
06:59 10.7 °C 3.4 °C 1013.8 hPa North 13 km/h 8.9 km/h 61 % 0 mm
07:04 10.8 °C 3.3 °C 1013.8 hPa North 18.5 km/h 11.1 km/h 60 % 0 mm
07:09 10.8 °C 3.6 °C 1013.8 hPa North 13 km/h 10.8 km/h 61 % 0 mm
07:14 10.8 °C 3.6 °C 1013.8 hPa North 18.5 km/h 14 km/h 61 % 0 mm
07:19 10.7 °C 3.7 °C 1013.8 hPa North 18.5 km/h 11.3 km/h 62 % 0 mm
07:24 10.6 °C 4.2 °C 1013.8 hPa North 16.7 km/h 8 km/h 65 % 0 mm
07:29 10.4 °C 4.3 °C 1013.8 hPa North 16.7 km/h 9.5 km/h 66 % 0 mm
07:34 10.2 °C 4.2 °C 1013.4 hPa NNW 24.1 km/h 12.9 km/h 66 % 0 mm
07:39 10.2 °C 4.3 °C 1013.4 hPa NNE 19.3 km/h 12.7 km/h 67 % 0 mm
07:44 10.1 °C 4.4 °C 1013.4 hPa North 13 km/h 11.3 km/h 68 % 0 mm
07:49 10 °C 4.8 °C 1013.1 hPa North 14.5 km/h 9.8 km/h 70 % 0 mm
07:54 9.8 °C 4.8 °C 1013.1 hPa North 16.7 km/h 11.3 km/h 71 % 0 mm
07:59 9.7 °C 4.8 °C 1013.1 hPa North 14.8 km/h 7.4 km/h 72 % 0 mm
08:04 9.6 °C 4.8 °C 1012.8 hPa North 14.8 km/h 10.3 km/h 72 % 0 mm
08:09 9.6 °C 5 °C 1012.8 hPa NNE 9.3 km/h 7.7 km/h 73 % 0 mm
08:14 9.5 °C 5.1 °C 1012.4 hPa NNE 16.7 km/h 13.8 km/h 74 % 0 mm
08:19 9.4 °C 5 °C 1012.4 hPa NE 11.1 km/h 7.4 km/h 74 % 0 mm
08:24 9.3 °C 5.1 °C 1012.4 hPa NNE 18.5 km/h 8.9 km/h 75 % 0 mm
08:29 9.3 °C 5.1 °C 1012.4 hPa NNE 14.5 km/h 10.5 km/h 75 % 0 mm
08:34 9.3 °C 5.1 °C 1012.1 hPa NNE 7.4 km/h 7.6 km/h 75 % 0 mm
08:39 9.4 °C 5.4 °C 1012.4 hPa NNE 9.7 km/h 6.4 km/h 76 % 0 mm
08:42 9.4 °C 5.4 °C 1012.4 hPa NNE 8 km/h 6.4 km/h 76 % 0 mm
08:49 9.4 °C 5.6 °C 1012.4 hPa NNE 11.1 km/h 7.6 km/h 77 % 0 mm
08:54 9.5 °C 5.7 °C 1012.4 hPa NNE 8 km/h 6.6 km/h 77 % 0 mm
08:59 9.6 °C 5.6 °C 1012.4 hPa NNE 9.3 km/h 5 km/h 76 % 0 mm
09:04 9.7 °C 5.4 °C 1012.1 hPa North 16.7 km/h 12.4 km/h 75 % 0 mm
09:09 9.9 °C 5.7 °C 1012.1 hPa North 12.9 km/h 8.7 km/h 75 % 0 mm
09:14 10.1 °C 5.6 °C 1012.1 hPa North 13 km/h 8.4 km/h 74 % 0 mm
09:19 10.2 °C 5.6 °C 1012.1 hPa North 24.1 km/h 9.8 km/h 73 % 0 mm
09:24 10.4 °C 5.6 °C 1012.1 hPa North 25.9 km/h 14.8 km/h 72 % 0 mm
09:29 10.6 °C 5.8 °C 1012.4 hPa NW 18.5 km/h 12.9 km/h 72 % 0 mm
09:34 10.7 °C 5.9 °C 1012.8 hPa North 20.4 km/h 12.7 km/h 72 % 0 mm
09:39 10.8 °C 6 °C 1012.8 hPa North 18.5 km/h 15.8 km/h 72 % 0 mm
09:44 10.7 °C 5.9 °C 1012.1 hPa North 18.5 km/h 11.3 km/h 72 % 0 mm
09:49 10.6 °C 5.7 °C 1012.4 hPa NNW 14.8 km/h 11.9 km/h 72 % 0 mm
09:54 10.4 °C 5.8 °C 1012.1 hPa NNW 18.5 km/h 12.7 km/h 73 % 0 mm
09:59 10.4 °C 5.4 °C 1012.1 hPa North 20.4 km/h 17.1 km/h 71 % 0 mm
10:04 10.4 °C 5.3 °C 1011.7 hPa North 18.5 km/h 13.2 km/h 71 % 0 mm
10:09 10.4 °C 5.3 °C 1012.1 hPa North 25.9 km/h 14 km/h 71 % 0 mm
10:14 10.4 °C 5.3 °C 1012.1 hPa North 18.5 km/h 11.1 km/h 71 % 0 mm
10:19 10.6 °C 5.7 °C 1012.1 hPa North 19.3 km/h 11.4 km/h 72 % 0 mm
10:24 10.6 °C 5.4 °C 1012.1 hPa North 25.9 km/h 16.1 km/h 70 % 0 mm
10:29 10.6 °C 5.3 °C 1012.1 hPa North 24.1 km/h 14.8 km/h 70 % 0 mm
10:34 10.5 °C 5.3 °C 1012.1 hPa North 27.8 km/h 11.6 km/h 70 % 0 mm
10:39 10.2 °C 5.6 °C 1012.1 hPa North 18.5 km/h 11.9 km/h 73 % 0.51 mm
10:44 9.8 °C 5.7 °C 1012.1 hPa North 18.5 km/h 11.9 km/h 76 % 0.51 mm
10:49 9.5 °C 5.7 °C 1012.1 hPa NNW 22.2 km/h 13 km/h 77 % 0.51 mm
10:54 9.5 °C 5.8 °C 1011.7 hPa North 11.3 km/h 8.7 km/h 78 % 0.51 mm
10:59 9.6 °C 6.1 °C 1011.7 hPa North 9.3 km/h 9.3 km/h 79 % 0.51 mm
11:04 9.7 °C 6.3 °C 1011.4 hPa NNE 16.7 km/h 12.2 km/h 79 % 0.51 mm
11:09 10 °C 6.2 °C 1011.1 hPa North 22.2 km/h 15.4 km/h 77 % 0.51 mm
11:14 10.5 °C 6.1 °C 1011.1 hPa North 20.4 km/h 12.9 km/h 74 % 0.51 mm
11:19 10.9 °C 5.8 °C 1011.1 hPa NNE 24.1 km/h 11.9 km/h 71 % 0.51 mm
11:24 11.1 °C 5.6 °C 1011.1 hPa North 18.5 km/h 13.8 km/h 69 % 0.51 mm
11:29 11.4 °C 5.9 °C 1010.7 hPa NNE 18.5 km/h 9.8 km/h 69 % 0.51 mm
11:34 11.8 °C 5.7 °C 1010.7 hPa NNE 18.5 km/h 15 km/h 66 % 0.51 mm
11:39 11.9 °C 5.3 °C 1010.4 hPa NNW 18.5 km/h 14.5 km/h 64 % 0.25 mm
11:44 11.8 °C 5.2 °C 1010.4 hPa North 18.5 km/h 11.9 km/h 64 % 0.25 mm
11:49 11.8 °C 5.4 °C 1010 hPa North 16.1 km/h 12.9 km/h 65 % 0 mm
11:54 12 °C 5.4 °C 1010 hPa North 16.7 km/h 12.2 km/h 64 % 0 mm
11:59 12.1 °C 5.5 °C 1009.7 hPa North 27.8 km/h 14 km/h 64 % 0 mm
12:04 12.3 °C 5.7 °C 1009.4 hPa North 25.9 km/h 11.9 km/h 64 % 0 mm
12:09 12.3 °C 5.5 °C 1009 hPa NNE 20.4 km/h 11.1 km/h 63 % 0 mm
12:14 12.4 °C 5.6 °C 1009 hPa NNE 29.6 km/h 11.4 km/h 63 % 0 mm
12:19 12.5 °C 5.7 °C 1009 hPa North 22.2 km/h 12.7 km/h 63 % 0 mm
12:24 12.8 °C 5.7 °C 1008.7 hPa NNE 25.9 km/h 12.1 km/h 62 % 0 mm
12:29 13.1 °C 5.9 °C 1008.7 hPa North 18.5 km/h 11.1 km/h 62 % 0 mm
12:34 13.3 °C 5.7 °C 1008.4 hPa NNE 29.6 km/h 18.7 km/h 60 % 0 mm
12:39 13.2 °C 5.6 °C 1008 hPa North 31.5 km/h 23.7 km/h 60 % 0 mm
12:44 13.2 °C 5.8 °C 1008 hPa North 31.5 km/h 20.6 km/h 61 % 0 mm
12:49 13.3 °C 5.7 °C 1008 hPa NNE 31.5 km/h 20.3 km/h 60 % 0 mm
12:54 13.4 °C 5.6 °C 1007.7 hPa North 29.6 km/h 15.3 km/h 59 % 0 mm
12:59 13.3 °C 5.7 °C 1007.7 hPa NNE 31.5 km/h 26.2 km/h 60 % 0 mm
13:04 13.3 °C 5.9 °C 1007.7 hPa North 29.6 km/h 10.9 km/h 61 % 0 mm
13:09 13.3 °C 6.2 °C 1007.3 hPa NNE 20.4 km/h 14.3 km/h 62 % 0 mm
13:14 13.4 °C 6 °C 1007.3 hPa North 27.8 km/h 19.3 km/h 61 % 0 mm
13:19 13.3 °C 5.4 °C 1007 hPa North 27.8 km/h 16.6 km/h 59 % 0 mm
13:24 13.2 °C 5.4 °C 1006.7 hPa North 35.2 km/h 29.1 km/h 59 % 0 mm
13:29 13.2 °C 5.4 °C 1006.7 hPa North 27.8 km/h 11.6 km/h 59 % 0 mm
13:34 13.4 °C 5.8 °C 1006.7 hPa North 18.5 km/h 16.7 km/h 60 % 0 mm
13:39 13.6 °C 5.7 °C 1006.3 hPa NNE 38.6 km/h 26.4 km/h 59 % 0 mm
13:44 13.8 °C 5.4 °C 1006.3 hPa North 24.1 km/h 19.6 km/h 57 % 0 mm
13:49 13.9 °C 5.8 °C 1006.3 hPa North 25.9 km/h 13 km/h 58 % 0 mm
13:54 14 °C 5.8 °C 1006.3 hPa North 20.4 km/h 13.2 km/h 58 % 0 mm
13:59 14 °C 5.8 °C 1006 hPa North 31.5 km/h 19.5 km/h 58 % 0 mm
14:04 14 °C 5.8 °C 1005.6 hPa NNE 18.5 km/h 16.3 km/h 58 % 0 mm
14:09 14.1 °C 5.9 °C 1005.6 hPa North 31.5 km/h 21.7 km/h 58 % 0 mm
14:14 14.2 °C 5.8 °C 1005.6 hPa NNE 27.8 km/h 20.1 km/h 57 % 0 mm
14:19 14.3 °C 6.1 °C 1005.3 hPa North 29.6 km/h 18 km/h 58 % 0 mm
14:24 14.4 °C 6.3 °C 1005 hPa North 18.5 km/h 13 km/h 58 % 0 mm
14:29 14.6 °C 6.1 °C 1005.3 hPa North 18.5 km/h 11.9 km/h 57 % 0 mm
14:34 14.7 °C 6.2 °C 1005.3 hPa North 18.5 km/h 12.1 km/h 57 % 0 mm
14:39 14.7 °C 6.3 °C 1005.3 hPa North 18.5 km/h 13.2 km/h 57 % 0 mm
14:44 14.8 °C 6.4 °C 1005.6 hPa North 20.4 km/h 12.2 km/h 57 % 0 mm
14:49 14.9 °C 6.4 °C 1005.6 hPa North 20.4 km/h 10.6 km/h 57 % 0 mm
14:54 14.9 °C 6.2 °C 1005.6 hPa North 33.3 km/h 20 km/h 56 % 0 mm
14:59 15 °C 6.3 °C 1005.6 hPa NNW 24.1 km/h 18.8 km/h 56 % 0 mm
15:04 15.1 °C 6.3 °C 1005.3 hPa North 18.5 km/h 13.5 km/h 56 % 0 mm
15:09 15.2 °C 5.9 °C 1005.3 hPa North 24.1 km/h 19.5 km/h 54 % 0 mm
15:14 15.3 °C 5.8 °C 1005.6 hPa North 24.1 km/h 14 km/h 53 % 0 mm
15:19 15.3 °C 5.5 °C 1006 hPa North 22.2 km/h 15.9 km/h 52 % 0 mm
15:24 15.3 °C 5.8 °C 1006 hPa North 14.8 km/h 10.8 km/h 53 % 0 mm
15:29 15.3 °C 5.5 °C 1006 hPa NNW 19.3 km/h 15.3 km/h 52 % 0 mm
15:34 15.2 °C 5.7 °C 1006 hPa North 14.8 km/h 10.8 km/h 53 % 0 mm
15:39 15.2 °C 5.7 °C 1006 hPa North 16.7 km/h 8.4 km/h 53 % 0 mm
15:44 15.2 °C 5.7 °C 1006 hPa North 13 km/h 11.3 km/h 53 % 0 mm
15:49 15.2 °C 5.7 °C 1005.6 hPa North 16.7 km/h 7.4 km/h 53 % 0 mm
15:54 15.1 °C 5.6 °C 1006 hPa NNW 16.7 km/h 9.7 km/h 53 % 0 mm
15:59 15.1 °C 5.3 °C 1006 hPa North 25.9 km/h 13 km/h 52 % 0 mm
16:04 15.1 °C 5.3 °C 1005.6 hPa North 16.7 km/h 12.9 km/h 52 % 0 mm
16:09 15.1 °C 5.3 °C 1005.6 hPa North 20.4 km/h 12.6 km/h 52 % 0 mm
16:14 15.1 °C 5.3 °C 1005.6 hPa NNE 18.5 km/h 9.8 km/h 52 % 0 mm
16:19 15.1 °C 5.3 °C 1005.3 hPa North 18.5 km/h 15.9 km/h 52 % 0 mm
16:24 15.1 °C 5.1 °C 1005 hPa North 18.5 km/h 13.8 km/h 51 % 0 mm
16:29 15.1 °C 5 °C 1005 hPa North 13 km/h 7.6 km/h 51 % 0 mm
16:34 15.1 °C 4.7 °C 1005 hPa North 22.2 km/h 17.7 km/h 50 % 0 mm
16:39 15 °C 4.7 °C 1005 hPa North 12.9 km/h 11.7 km/h 50 % 0 mm
16:44 15 °C 4.9 °C 1005 hPa North 19.3 km/h 10.6 km/h 51 % 0 mm
16:49 14.9 °C 4.6 °C 1005 hPa NNW 18.5 km/h 12.4 km/h 50 % 0 mm
16:54 14.9 °C 4.9 °C 1004.6 hPa North 18.5 km/h 9.5 km/h 51 % 0 mm
16:59 14.9 °C 4.8 °C 1004.6 hPa NNE 12.9 km/h 12.9 km/h 51 % 0 mm
17:04 14.8 °C 5.1 °C 1004.6 hPa North 20.4 km/h 10.6 km/h 52 % 0 mm
17:09 14.7 °C 4.9 °C 1005 hPa NW 11.1 km/h 9 km/h 52 % 0 mm
17:14 14.6 °C 4.8 °C 1005 hPa North 18.5 km/h 11.3 km/h 52 % 0 mm
17:19 14.6 °C 4.8 °C 1005.3 hPa North 18.5 km/h 8.9 km/h 52 % 0 mm
17:24 14.5 °C 4.8 °C 1005.3 hPa NNW 14.8 km/h 9.8 km/h 52 % 0 mm
17:29 14.4 °C 5 °C 1005.3 hPa NNW 13 km/h 8.7 km/h 53 % 0 mm
17:34 14.3 °C 5.3 °C 1006 hPa NW 16.7 km/h 12.4 km/h 55 % 0 mm
17:39 13.9 °C 5.8 °C 1006 hPa NW 14.5 km/h 12.4 km/h 58 % 0 mm
17:44 13.8 °C 5.4 °C 1006 hPa NNW 18.5 km/h 13.4 km/h 57 % 0 mm
17:49 13.7 °C 5.6 °C 1005.6 hPa NNW 9.3 km/h 8.9 km/h 58 % 0 mm
17:54 13.7 °C 5.8 °C 1006 hPa North 13 km/h 8.2 km/h 59 % 0 mm
17:59 13.6 °C 5.9 °C 1006 hPa NNW 14.8 km/h 8.5 km/h 60 % 0 mm
18:04 13.5 °C 6.1 °C 1006 hPa NW 18.5 km/h 7.9 km/h 61 % 0.25 mm
18:09 13.2 °C 6.3 °C 1006 hPa North 11.1 km/h 6.4 km/h 63 % 0.25 mm
18:14 13 °C 6.3 °C 1006 hPa NNW 11.3 km/h 7.9 km/h 64 % 0.25 mm
18:19 12.9 °C 6.4 °C 1006 hPa North 11.1 km/h 9.7 km/h 65 % 0.25 mm
18:24 12.8 °C 6.3 °C 1006 hPa North 9.3 km/h 7.1 km/h 65 % 0.25 mm
18:29 12.8 °C 6.3 °C 1005.6 hPa North 18.5 km/h 17.4 km/h 65 % 0.25 mm
18:34 13 °C 6.3 °C 1005.3 hPa North 20.9 km/h 14.5 km/h 64 % 0.25 mm
18:39 13.4 °C 6.1 °C 1005.6 hPa NNW 24.1 km/h 14.3 km/h 61 % 0.25 mm
18:44 13.5 °C 6.1 °C 1005.6 hPa NW 16.7 km/h 14.3 km/h 61 % 0.25 mm
18:49 13.8 °C 5.9 °C 1005.6 hPa NW 25.9 km/h 13 km/h 59 % 0.25 mm
18:54 13.9 °C 5.8 °C 1005.6 hPa NNW 24.1 km/h 15.3 km/h 58 % 0.25 mm
18:59 14.2 °C 6 °C 1006 hPa NW 18.5 km/h 10.5 km/h 58 % 0.51 mm
19:04 14.1 °C 5.7 °C 1006 hPa North 27.8 km/h 14.2 km/h 57 % 0.25 mm
19:09 14.1 °C 5.9 °C 1006 hPa NW 25.9 km/h 26.4 km/h 58 % 0.25 mm
19:14 14.1 °C 6.9 °C 1006 hPa NNW 24.1 km/h 18.5 km/h 62 % 0.25 mm
19:19 13.9 °C 7.6 °C 1006 hPa NW 31.5 km/h 15.6 km/h 66 % 0.25 mm
19:24 13.7 °C 8.1 °C 1006 hPa WNW 35.2 km/h 24.9 km/h 69 % 0.25 mm
19:29 13.9 °C 8.1 °C 1005.6 hPa NNW 25.9 km/h 15.9 km/h 68 % 0.25 mm
19:34 13.9 °C 8.1 °C 1005.6 hPa NNW 25.9 km/h 20.8 km/h 68 % 0.25 mm
19:39 13.7 °C 8.8 °C 1005 hPa NNW 24.1 km/h 13.4 km/h 72 % 0.51 mm
19:44 13.6 °C 8 °C 1005.3 hPa North 27.8 km/h 22 km/h 69 % 0.51 mm
19:49 13.5 °C 7.9 °C 1005 hPa NW 24.1 km/h 15.1 km/h 69 % 0.51 mm
19:54 13.3 °C 7.8 °C 1005 hPa NW 18.5 km/h 9.8 km/h 69 % 0.51 mm
19:59 13.3 °C 7.8 °C 1005 hPa NNW 22.2 km/h 13.8 km/h 69 % 0.25 mm
20:04 13.4 °C 7.7 °C 1004.6 hPa North 25.9 km/h 12.7 km/h 68 % 0.25 mm
20:09 13.4 °C 7.6 °C 1005.3 hPa NNW 16.7 km/h 13.2 km/h 68 % 0.25 mm
20:14 13.3 °C 7.8 °C 1005.6 hPa NNE 19.3 km/h 10.8 km/h 69 % 0.25 mm
20:19 13.2 °C 7.8 °C 1005.6 hPa North 14.8 km/h 10.1 km/h 70 % 0.25 mm
20:24 13.1 °C 7.8 °C 1005.6 hPa NNW 14.8 km/h 10.6 km/h 70 % 0.25 mm
20:29 13 °C 7.9 °C 1005.3 hPa North 13 km/h 7.7 km/h 71 % 0.25 mm
20:34 12.9 °C 7.9 °C 1005.3 hPa NNW 14.8 km/h 9.7 km/h 72 % 0.25 mm
20:39 12.9 °C 8.4 °C 1005 hPa North 18.5 km/h 11.4 km/h 74 % 0 mm
20:44 13.2 °C 8.6 °C 1005 hPa North 31.5 km/h 13.7 km/h 74 % 0 mm
20:49 13.3 °C 8.7 °C 1005 hPa NNW 18.5 km/h 13.5 km/h 74 % 0 mm
20:54 13.2 °C 8.6 °C 1005 hPa North 13 km/h 9.7 km/h 74 % 0 mm
20:59 13.2 °C 8.6 °C 1005 hPa North 18.5 km/h 8.4 km/h 74 % 0 mm
21:04 13.1 °C 8.5 °C 1005 hPa NNW 13 km/h 8.4 km/h 74 % 0 mm
21:09 13 °C 8.4 °C 1004.6 hPa North 18.5 km/h 11.9 km/h 74 % 0 mm
21:14 12.8 °C 8.3 °C 1004.6 hPa North 18.5 km/h 10.6 km/h 74 % 0 mm
21:19 12.7 °C 8.2 °C 1005 hPa NNW 22.2 km/h 8.5 km/h 74 % 0 mm
21:24 12.6 °C 8.3 °C 1005 hPa North 20.9 km/h 9 km/h 75 % 0 mm
21:29 12.6 °C 8.3 °C 1004.6 hPa North 20.4 km/h 12.7 km/h 75 % 0 mm
21:34 12.6 °C 8.3 °C 1004.6 hPa NNW 14.8 km/h 10.5 km/h 75 % 0 mm
21:39 12.6 °C 8.3 °C 1005 hPa NNW 20.4 km/h 9.5 km/h 75 % 0 mm
21:44 12.6 °C 8.3 °C 1005 hPa NNW 11.1 km/h 7.6 km/h 75 % 0 mm
21:49 12.6 °C 8.2 °C 1004.6 hPa NNW 13 km/h 7.7 km/h 75 % 0 mm
21:54 12.6 °C 8.2 °C 1004.6 hPa NNW 14.8 km/h 9.5 km/h 75 % 0 mm
21:59 12.4 °C 8.3 °C 1004.6 hPa North 14.8 km/h 9.7 km/h 76 % 0 mm
22:04 12.4 °C 8.3 °C 1004.6 hPa North 18.5 km/h 8.7 km/h 76 % 0 mm
22:09 12.3 °C 8.2 °C 1004.6 hPa NNW 11.1 km/h 4.7 km/h 76 % 0 mm
22:14 12.2 °C 8.3 °C 1004.6 hPa North 13 km/h 6.3 km/h 77 % 0 mm
22:19 12.1 °C 8.2 °C 1004.6 hPa NNW 14.8 km/h 8.5 km/h 77 % 0 mm
22:24 12.1 °C 8.3 °C 1005 hPa NNW 13 km/h 10.3 km/h 78 % 0 mm
22:29 12.2 °C 8.5 °C 1005 hPa NW 14.5 km/h 9.3 km/h 78 % 0 mm
22:34 12.4 °C 8.9 °C 1005 hPa WNW 31.5 km/h 20.4 km/h 79 % 0 mm
22:39 12.9 °C 9 °C 1004.6 hPa NW 30.6 km/h 18 km/h 77 % 0 mm
22:44 13.1 °C 9.2 °C 1004.6 hPa NW 25.9 km/h 20.1 km/h 77 % 0 mm
22:49 12.9 °C 9 °C 1004.6 hPa NW 22.2 km/h 14.5 km/h 77 % 0 mm
22:54 12.9 °C 9.2 °C 1004.6 hPa NW 18.5 km/h 11.3 km/h 78 % 0 mm
22:59 12.9 °C 9.2 °C 1004.6 hPa NW 31.5 km/h 15.9 km/h 78 % 0 mm
23:04 13 °C 9.1 °C 1004.6 hPa North 25.9 km/h 17.2 km/h 77 % 0 mm
23:09 13 °C 9.1 °C 1005 hPa NW 20.4 km/h 17.5 km/h 77 % 0 mm
23:14 12.8 °C 9.3 °C 1004.6 hPa North 25.9 km/h 16.7 km/h 79 % 0 mm
23:19 12.6 °C 9.4 °C 1004.6 hPa NW 18.5 km/h 13.5 km/h 81 % 0 mm
23:24 12.3 °C 9.3 °C 1004.6 hPa NW 18.5 km/h 10.5 km/h 82 % 0 mm
23:29 12.2 °C 9.4 °C 1004.6 hPa North 14.8 km/h 8.9 km/h 83 % 0 mm
23:34 12 °C 9.2 °C 1004.3 hPa North 18.5 km/h 11.3 km/h 83 % 0 mm
23:39 11.9 °C 9.1 °C 1004.3 hPa NW 25.7 km/h 16.1 km/h 83 % 0 mm
23:44 11.9 °C 8.9 °C 1004.3 hPa NW 16.7 km/h 15.8 km/h 82 % 0 mm
23:49 11.9 °C 8.9 °C 1004.3 hPa WNW 11.1 km/h 6.9 km/h 82 % 0 mm
23:54 11.8 °C 8.8 °C 1004.3 hPa NNW 18.5 km/h 11.3 km/h 82 % 0 mm
23:59 11.8 °C 8.8 °C 1004.3 hPa NNW 22.2 km/h 14 km/h 82 % 0 mm
Ararat Weather
Compliments of Weather Underground - 2.25 mb
Click here to send mail.


ABOUT

Live weather data from Ararat, Victoria, Australia, 3377
Data uploaded from Cumulus every 5 minutes to Weather Underground.
This site then downloads the raw data for formatting and display.
Metric and imperial data can be displayed. Graphs and historical data available.
Includes Sun and Moon times and rain image live from BOM.

Check out Ararat Weather on Facebook, Twitter and Google +

Help support ongoing costs by checking out the ads





Follow @AraratWeather